Time;durP1;ratioP1;P1;durP2;ratioP2;P2;SDS_P1;SDS_P2;PMS_P1;PMS_P2;Temp;Humidity;BMP_temperature;BMP_pressure;BME280_temperature;BME280_humidity;BME280_pressure;Samples;Min_cycle;Max_cycle;Signal;HPM_P1;HPM_P2
2024/04/17 01:43:31;;;;;;;;;;;;;;;;;;;;;
2024/04/17 04:09:52;;;;;;;0.93;0.70;;;14.90;84.70;;;;;;5174103;27;20036;-80
2024/04/17 04:12:18;;;;;;;2.35;0.90;;;14.90;84.70;;;;;;5176358;27;19997;-83
2024/04/17 04:14:43;;;;;;;1.63;0.70;;;14.90;84.70;;;;;;5175677;27;20381;-81
2024/04/17 04:17:10;;;;;;;1.85;0.90;;;14.90;84.70;;;;;;5145964;27;20462;-83
2024/04/17 04:19:39;;;;;;;1.88;0.85;;;14.90;84.70;;;;;;5174826;27;20004;-84
2024/04/17 04:22:04;;;;;;;1.52;0.80;;;14.90;84.70;;;;;;5146955;27;20101;-84
2024/04/17 04:24:30;;;;;;;1.17;0.65;;;14.90;84.70;;;;;;5146892;27;20005;-85
2024/04/17 04:26:55;;;;;;;1.80;0.60;;;14.90;84.70;;;;;;5175960;27;20001;-85
2024/04/17 04:29:21;;;;;;;1.40;0.75;;;14.90;84.70;;;;;;5176106;27;20000;-85
2024/04/17 04:31:47;;;;;;;2.17;0.93;;;14.90;84.80;;;;;;5175851;27;20001;-84
2024/04/17 04:34:12;;;;;;;1.20;0.70;;;14.90;84.70;;;;;;5147403;27;20062;-86
2024/04/17 04:36:38;;;;;;;2.20;0.80;;;14.90;84.80;;;;;;5175362;27;20000;-86
2024/04/17 04:39:06;;;;;;;2.15;0.80;;;14.80;84.70;;;;;;5175565;27;20008;-83
2024/04/17 04:41:32;;;;;;;1.70;0.88;;;14.90;84.80;;;;;;5175518;27;20001;-86
2024/04/17 04:43:58;;;;;;;0.98;0.60;;;14.80;84.70;;;;;;5146753;27;20017;-84
2024/04/17 04:46:24;;;;;;;2.15;0.98;;;14.90;84.80;;;;;;5145040;27;20079;-81
2024/04/17 04:49:03;;;;;;;0.88;0.60;;;14.90;84.80;;;;;;5145805;27;20005;-82
2024/04/17 04:51:37;;;;;;;2.17;0.85;;;14.90;84.80;;;;;;5146719;27;20004;-82
2024/04/17 04:54:38;;;;;;;2.50;0.70;;;14.80;84.70;;;;;;5175409;27;20008;-81
2024/04/17 04:57:07;;;;;;;1.08;0.70;;;14.90;84.80;;;;;;5146176;27;20008;-82
2024/04/17 04:59:55;;;;;;;;;;;;;;;;;;;;;
2024/04/17 05:02:38;;;;;;;1.13;0.73;;;14.90;84.80;;;;;;5176161;27;20020;-83
2024/04/17 05:05:27;;;;;;;1.75;0.70;;;14.90;84.80;;;;;;5178350;27;20351;-84
2024/04/17 05:11:36;;;;;;;1.63;0.80;;;14.90;84.80;;;;;;5054358;28;20006;-87
2024/04/17 05:18:08;;;;;;;1.83;0.82;;;14.90;84.80;;;;;;5079994;28;20009;-83
2024/04/17 05:25:16;;;;;;;;;;;;;;;;;;;;;
2024/04/17 05:27:42;;;;;;;4.32;1.13;;;14.90;84.40;;;;;;4986930;28;20008;-86
2024/04/17 05:30:11;;;;;;;3.92;1.05;;;14.90;84.10;;;;;;4986322;28;20014;-84
2024/04/17 05:32:37;;;;;;;5.00;1.20;;;14.90;83.90;;;;;;4986093;28;20011;-84
2024/04/17 05:35:03;;;;;;;3.13;1.10;;;14.90;83.90;;;;;;4986699;28;20000;-86
2024/04/17 05:37:29;;;;;;;3.58;0.90;;;14.90;83.90;;;;;;4986274;28;20135;-86
2024/04/17 05:39:54;;;;;;;2.80;1.00;;;14.90;83.80;;;;;;4986411;28;20001;-84
2024/04/17 05:42:20;;;;;;;3.88;1.10;;;14.90;83.80;;;;;;4986433;28;20487;-83
2024/04/17 05:44:46;;;;;;;2.55;0.90;;;14.90;83.80;;;;;;4985750;28;20015;-84
2024/04/17 05:47:11;;;;;;;7.20;1.33;;;14.90;83.90;;;;;;4986670;28;20004;-85
2024/04/17 05:49:37;;;;;;;2.22;0.88;;;14.90;83.90;;;;;;4986109;28;20062;-86
2024/04/17 05:52:03;;;;;;;3.15;0.90;;;14.90;83.90;;;;;;4995987;28;20033;-83
2024/04/17 05:54:29;;;;;;;5.03;1.08;;;14.90;83.90;;;;;;5022629;28;19999;-85
2024/04/17 05:56:55;;;;;;;3.58;0.90;;;14.90;83.90;;;;;;5074760;27;20001;-83
2024/04/17 05:59:20;;;;;;;2.97;0.77;;;15.00;84.00;;;;;;5148617;27;20001;-83
2024/04/17 06:01:46;;;;;;;3.67;1.05;;;15.00;84.00;;;;;;5177504;27;20012;-83
2024/04/17 06:04:11;;;;;;;2.70;0.98;;;15.00;84.00;;;;;;5148391;27;20342;-85
2024/04/17 06:06:37;;;;;;;3.45;0.95;;;15.00;83.90;;;;;;5148516;27;20470;-85
2024/04/17 06:09:03;;;;;;;2.25;0.90;;;15.00;83.90;;;;;;5148870;27;20000;-82
2024/04/17 06:11:28;;;;;;;3.78;0.95;;;15.00;83.90;;;;;;5148181;27;20001;-81
2024/04/17 06:13:55;;;;;;;3.58;1.00;;;15.00;83.80;;;;;;5176166;27;20076;-83
2024/04/17 06:16:21;;;;;;;2.88;0.90;;;15.10;83.90;;;;;;5122105;27;20036;-85
2024/04/17 06:18:46;;;;;;;3.25;0.90;;;15.00;83.70;;;;;;5148340;27;20142;-86
2024/04/17 06:21:12;;;;;;;2.20;0.73;;;15.00;83.80;;;;;;5147933;27;20000;-83
2024/04/17 06:23:38;;;;;;;4.53;1.13;;;15.10;83.80;;;;;;5176347;27;20531;-83
2024/04/17 06:26:04;;;;;;;2.45;1.02;;;15.10;83.80;;;;;;5121017;27;19996;-83
2024/04/17 06:28:29;;;;;;;3.75;1.23;;;15.10;83.70;;;;;;5147961;27;20077;-82
2024/04/17 06:30:56;;;;;;;2.97;0.90;;;15.10;83.60;;;;;;5148662;27;20037;-83
2024/04/17 06:33:22;;;;;;;3.72;0.80;;;15.10;83.50;;;;;;5121724;27;19997;-84
2024/04/17 06:35:47;;;;;;;3.30;0.90;;;15.20;83.50;;;;;;5147998;27;20011;-85
2024/04/17 06:38:13;;;;;;;2.20;0.90;;;15.20;83.50;;;;;;5148779;27;19997;-85
2024/04/17 06:40:39;;;;;;;3.63;1.00;;;15.20;83.50;;;;;;5177354;27;20004;-83
2024/04/17 06:43:05;;;;;;;3.08;0.80;;;15.20;83.50;;;;;;5176442;27;20006;-83
2024/04/17 06:45:31;;;;;;;1.95;0.90;;;15.20;83.40;;;;;;5121316;27;20007;-80
2024/04/17 06:47:56;;;;;;;3.35;0.98;;;15.20;83.40;;;;;;5121827;27;19997;-81
2024/04/17 06:50:22;;;;;;;3.28;1.00;;;15.30;83.30;;;;;;5176755;27;20017;-82
2024/04/17 06:52:48;;;;;;;3.03;0.90;;;15.30;83.30;;;;;;5176858;27;19996;-82
2024/04/17 06:55:13;;;;;;;3.03;0.90;;;15.30;83.20;;;;;;5149439;27;20003;-81
2024/04/17 06:57:39;;;;;;;1.83;0.70;;;15.30;83.20;;;;;;5177002;27;20712;-80
2024/04/17 07:00:06;;;;;;;2.72;0.75;;;15.30;83.20;;;;;;5147118;27;19996;-80
2024/04/17 07:02:32;;;;;;;1.38;0.80;;;15.30;83.20;;;;;;5121243;27;20004;-83
2024/04/17 07:04:58;;;;;;;1.25;0.80;;;15.30;83.30;;;;;;5147463;27;20004;-80
2024/04/17 07:07:23;;;;;;;2.58;0.80;;;15.30;83.30;;;;;;5176880;27;20072;-82
2024/04/17 07:09:49;;;;;;;1.83;0.88;;;15.30;83.30;;;;;;5176929;27;20000;-80
2024/04/17 07:12:16;;;;;;;2.03;0.82;;;15.30;83.30;;;;;;5147948;27;19997;-80
2024/04/17 07:14:44;;;;;;;2.53;0.80;;;15.30;83.30;;;;;;5149609;27;20011;-79
2024/04/17 07:17:11;;;;;;;2.05;0.80;;;15.30;83.20;;;;;;5175650;27;20004;-80
2024/04/17 07:19:36;;;;;;;1.52;0.80;;;15.30;83.20;;;;;;5148682;27;20009;-82
2024/04/17 07:22:02;;;;;;;1.45;0.68;;;15.30;83.20;;;;;;5147842;27;20014;-80
2024/04/17 07:24:30;;;;;;;2.67;0.80;;;15.30;83.30;;;;;;5148031;27;20004;-80
2024/04/17 07:26:56;;;;;;;1.95;0.85;;;15.30;83.20;;;;;;5146811;27;20361;-81
2024/04/17 07:29:22;;;;;;;2.67;0.90;;;15.30;83.20;;;;;;5177022;27;20000;-83
2024/04/17 07:31:48;;;;;;;2.38;0.90;;;15.30;83.30;;;;;;5148348;27;20007;-80
2024/04/17 07:34:14;;;;;;;2.00;0.82;;;15.30;83.30;;;;;;5148323;27;20012;-82
2024/04/17 07:36:40;;;;;;;2.08;0.80;;;15.30;83.40;;;;;;5152499;27;20000;-81
2024/04/17 07:39:06;;;;;;;2.05;0.82;;;15.30;83.40;;;;;;5182239;27;20063;-80
2024/04/17 07:41:32;;;;;;;2.28;0.90;;;15.20;83.40;;;;;;5153692;27;20053;-81
2024/04/17 07:44:00;;;;;;;1.92;0.88;;;15.30;83.50;;;;;;5150145;27;20019;-82
2024/04/17 07:46:25;;;;;;;2.95;1.10;;;15.20;83.50;;;;;;5121907;27;20025;-80
2024/04/17 07:48:51;;;;;;;2.80;0.90;;;15.30;83.50;;;;;;5176252;27;20000;-80
2024/04/17 07:51:17;;;;;;;2.03;1.02;;;15.30;83.50;;;;;;5147693;27;20028;-81
2024/04/17 07:53:48;;;;;;;2.03;0.80;;;15.30;83.50;;;;;;5176224;27;20746;-82
2024/04/17 07:56:14;;;;;;;;;;;15.30;83.50;;;;;;5151046;27;20040;-81
2024/04/17 07:58:39;;;;;;;1.77;0.70;;;15.30;83.50;;;;;;5148096;27;19936;-80
2024/04/17 08:01:05;;;;;;;1.00;0.73;;;15.30;83.60;;;;;;5120712;27;20450;-83
2024/04/17 08:03:31;;;;;;;1.50;0.80;;;15.40;83.60;;;;;;5121396;27;20391;-81
2024/04/17 08:05:56;;;;;;;2.05;0.80;;;15.30;83.60;;;;;;5121829;27;20338;-80
2024/04/17 08:08:22;;;;;;;1.35;0.60;;;15.30;83.60;;;;;;5147714;27;20010;-81
2024/04/17 08:10:47;;;;;;;2.00;0.77;;;15.40;83.60;;;;;;5176427;27;20001;-82
2024/04/17 08:13:15;;;;;;;3.10;1.00;;;15.20;83.50;;;;;;5176711;27;20457;-81
2024/04/17 08:15:48;;;;;;;1.88;0.82;;;15.20;84.00;;;;;;5176972;27;20007;-81
2024/04/17 08:18:13;;;;;;;2.97;0.70;;;15.30;83.60;;;;;;5179047;27;20004;-82
2024/04/17 08:20:39;;;;;;;1.30;0.70;;;15.30;83.60;;;;;;5175578;27;20001;-82
2024/04/17 08:23:07;;;;;;;2.42;0.98;;;15.40;83.70;;;;;;5147575;27;20539;-81
2024/04/17 08:25:33;;;;;;;1.77;0.88;;;15.30;83.70;;;;;;5176106;27;20007;-80
2024/04/17 08:27:59;;;;;;;1.80;0.70;;;15.30;83.70;;;;;;5147299;27;20041;-79
2024/04/17 08:30:24;;;;;;;1.52;0.70;;;15.30;83.80;;;;;;5176935;27;20000;-81
2024/04/17 08:32:50;;;;;;;2.22;0.80;;;15.30;83.80;;;;;;5147698;27;20001;-81
2024/04/17 08:35:16;;;;;;;1.65;0.90;;;15.30;83.90;;;;;;5150254;27;20001;-80
2024/04/17 08:37:43;;;;;;;1.73;0.80;;;15.10;83.70;;;;;;5149014;27;20041;-82
2024/04/17 08:40:11;;;;;;;1.90;0.73;;;15.20;83.80;;;;;;5152844;27;20000;-81
2024/04/17 08:42:41;;;;;;;1.65;0.82;;;15.20;83.90;;;;;;5149949;27;20004;-81
2024/04/17 08:45:11;;;;;;;1.10;0.70;;;15.30;84.00;;;;;;5150303;27;20019;-81
2024/04/17 08:47:40;;;;;;;1.42;0.80;;;15.20;84.00;;;;;;5149921;27;20080;-82
2024/04/17 08:50:06;;;;;;;1.45;0.70;;;15.10;84.00;;;;;;5178671;27;20020;-80
2024/04/17 08:52:37;;;;;;;2.20;0.88;;;15.20;84.10;;;;;;5150022;27;19996;-83
2024/04/17 08:55:04;;;;;;;1.30;0.80;;;15.20;84.60;;;;;;5152652;27;20016;-81
2024/04/17 08:57:34;;;;;;;1.90;0.80;;;15.20;84.10;;;;;;5150054;27;20009;-81
2024/04/17 09:00:00;;;;;;;1.77;0.82;;;15.20;84.20;;;;;;5149821;27;20004;-81
2024/04/17 09:02:26;;;;;;;2.10;0.90;;;15.20;84.20;;;;;;5123994;27;20180;-81
2024/04/17 09:04:54;;;;;;;1.52;0.70;;;15.20;84.20;;;;;;5150417;27;20004;-82
2024/04/17 09:07:20;;;;;;;1.35;0.77;;;15.10;84.20;;;;;;5178727;27;20008;-80
2024/04/17 09:09:49;;;;;;;1.38;0.70;;;15.20;84.30;;;;;;5149862;27;20077;-80
2024/04/17 09:12:15;;;;;;;2.10;0.85;;;15.20;84.30;;;;;;5123982;27;20068;-81
2024/04/17 09:14:40;;;;;;;1.95;0.80;;;15.20;84.30;;;;;;5150360;27;20943;-81
2024/04/17 09:17:08;;;;;;;1.63;0.88;;;15.20;84.30;;;;;;5149363;27;20000;-80
2024/04/17 09:19:36;;;;;;;2.65;1.00;;;15.10;84.30;;;;;;5150446;27;20076;-79
2024/04/17 09:22:02;;;;;;;2.22;0.80;;;15.10;84.30;;;;;;5177916;27;19997;-82
2024/04/17 09:24:27;;;;;;;2.28;0.90;;;15.10;84.40;;;;;;5178136;27;20469;-83
2024/04/17 09:26:53;;;;;;;1.52;0.70;;;15.00;84.50;;;;;;5127673;27;20019;-82
2024/04/17 09:29:19;;;;;;;1.33;0.75;;;15.10;84.50;;;;;;5157139;27;20604;-83
2024/04/17 09:31:46;;;;;;;1.88;0.90;;;15.10;84.50;;;;;;5157809;27;19997;-83
2024/04/17 09:34:15;;;;;;;2.70;1.00;;;15.10;84.50;;;;;;5156495;27;20001;-80
2024/04/17 09:36:45;;;;;;;1.25;0.70;;;15.10;84.60;;;;;;5181945;27;20060;-81
2024/04/17 09:39:11;;;;;;;1.58;0.70;;;15.00;84.50;;;;;;5149438;27;20012;-82
2024/04/17 09:41:40;;;;;;;2.42;0.88;;;15.10;84.60;;;;;;5150517;27;20011;-81
2024/04/17 09:44:08;;;;;;;2.20;0.80;;;15.10;84.60;;;;;;5178056;27;20004;-80
2024/04/17 09:46:34;;;;;;;1.92;0.85;;;15.10;84.60;;;;;;5178010;27;20001;-80
2024/04/17 09:49:19;;;;;;;1.50;0.80;;;15.00;84.40;;;;;;5178059;27;20012;-79
2024/04/17 09:51:46;;;;;;;1.58;0.80;;;15.10;84.60;;;;;;5149801;27;20012;-82
2024/04/17 09:54:14;;;;;;;1.85;0.80;;;15.10;84.50;;;;;;5149820;27;20004;-80
2024/04/17 09:56:46;;;;;;;2.05;0.90;;;15.10;84.50;;;;;;5178772;27;20012;-81
2024/04/17 09:59:12;;;;;;;1.75;0.93;;;15.10;84.50;;;;;;5177907;27;20458;-83
2024/04/17 10:01:38;;;;;;;2.50;1.08;;;15.10;84.50;;;;;;5180998;27;20008;-81
2024/04/17 10:04:07;;;;;;;1.67;0.80;;;15.10;84.40;;;;;;5180529;27;19996;-81
2024/04/17 10:06:37;;;;;;;1.20;0.80;;;15.20;84.40;;;;;;5149482;27;20011;-81
2024/04/17 10:09:05;;;;;;;1.48;0.70;;;15.10;84.30;;;;;;5178538;27;20014;-81
2024/04/17 10:11:32;;;;;;;2.40;0.80;;;15.20;84.30;;;;;;5149024;27;20011;-81
2024/04/17 10:13:58;;;;;;;1.70;1.00;;;15.10;84.10;;;;;;5148632;27;20018;-81
2024/04/17 10:16:24;;;;;;;0.95;0.70;;;15.20;84.20;;;;;;5177472;27;20001;-82
2024/04/17 10:18:50;;;;;;;1.92;0.88;;;15.20;84.20;;;;;;5148510;27;20007;-81
2024/04/17 10:21:26;;;;;;;2.30;1.00;;;15.20;84.20;;;;;;5148659;27;20084;-81
2024/04/17 10:24:01;;;;;;;1.38;0.77;;;15.10;84.20;;;;;;5148147;27;20076;-82
2024/04/17 10:26:50;;;;;;;1.63;0.90;;;15.20;84.30;;;;;;5152025;27;20469;-80
2024/04/17 10:29:16;;;;;;;2.53;1.00;;;15.20;84.40;;;;;;5148644;27;20004;-82
2024/04/17 10:31:42;;;;;;;2.25;0.80;;;15.20;84.40;;;;;;5148135;27;20015;-81
2024/04/17 10:34:08;;;;;;;1.20;0.85;;;15.20;84.40;;;;;;5148435;27;20007;-82
2024/04/17 10:36:37;;;;;;;2.22;0.90;;;15.20;84.50;;;;;;5148088;27;20016;-82
2024/04/17 10:39:04;;;;;;;1.88;0.90;;;15.10;84.50;;;;;;5148413;27;20000;-82
2024/04/17 10:41:30;;;;;;;0.88;0.68;;;15.10;84.50;;;;;;5148587;27;20072;-79
2024/04/17 10:43:56;;;;;;;1.17;0.80;;;15.20;84.60;;;;;;5177831;27;20008;-82
2024/04/17 10:46:22;;;;;;;2.10;0.80;;;15.00;84.40;;;;;;5177432;27;20880;-82
2024/04/17 10:48:49;;;;;;;1.33;0.80;;;15.00;84.50;;;;;;5147982;27;20108;-79
2024/04/17 10:51:17;;;;;;;1.10;0.70;;;15.10;84.60;;;;;;5148004;27;19996;-79
2024/04/17 10:53:43;;;;;;;1.60;0.70;;;15.00;84.60;;;;;;5136105;27;20775;-82
2024/04/17 10:56:09;;;;;;;1.70;0.70;;;15.10;84.60;;;;;;5148780;27;20000;-82
2024/04/17 10:58:38;;;;;;;1.58;0.70;;;15.10;84.60;;;;;;5148373;27;19997;-82
2024/04/17 11:01:04;;;;;;;1.38;0.80;;;15.00;84.60;;;;;;5177225;27;19996;-82
2024/04/17 11:03:32;;;;;;;2.00;1.10;;;15.10;84.70;;;;;;5148784;27;19996;-81
2024/04/17 11:05:58;;;;;;;1.60;0.90;;;15.20;85.30;;;;;;5148095;27;20004;-80
2024/04/17 11:08:24;;;;;;;1.80;0.95;;;15.10;84.70;;;;;;5148452;27;20080;-80
2024/04/17 11:10:50;;;;;;;1.55;0.77;;;15.10;84.70;;;;;;5148045;27;20458;-81
2024/04/17 11:13:17;;;;;;;1.40;0.80;;;15.00;84.70;;;;;;5148174;27;20045;-81
2024/04/17 11:15:43;;;;;;;1.23;0.70;;;15.00;84.70;;;;;;5149080;27;20094;-81
2024/04/17 11:18:10;;;;;;;1.30;0.70;;;15.10;84.70;;;;;;5147975;27;20159;-82
2024/04/17 11:20:36;;;;;;;1.65;0.90;;;15.10;84.80;;;;;;5121078;27;20078;-80
2024/04/17 11:23:09;;;;;;;1.10;0.75;;;15.10;84.80;;;;;;5148271;27;20000;-81
2024/04/17 11:25:49;;;;;;;1.42;0.73;;;15.10;84.80;;;;;;5148494;27;20051;-82
2024/04/17 11:28:15;;;;;;;0.88;0.70;;;15.10;84.90;;;;;;5148239;27;20011;-81
2024/04/17 11:30:48;;;;;;;0.93;0.77;;;15.00;84.70;;;;;;5148191;27;20967;-82
2024/04/17 11:33:14;;;;;;;1.15;0.70;;;15.10;84.80;;;;;;5121754;27;20394;-81
2024/04/17 11:35:40;;;;;;;1.17;0.77;;;15.00;84.70;;;;;;5177363;27;20012;-82
2024/04/17 11:38:11;;;;;;;1.75;1.00;;;15.10;84.80;;;;;;5121359;27;20457;-79
2024/04/17 11:40:36;;;;;;;1.25;0.60;;;15.00;84.70;;;;;;5148236;27;20004;-81
2024/04/17 11:43:13;;;;;;;1.13;0.70;;;15.10;84.80;;;;;;5151868;27;20015;-83
2024/04/17 11:45:38;;;;;;;1.42;0.77;;;15.10;84.70;;;;;;5176914;27;20348;-82
2024/04/17 11:48:04;;;;;;;2.38;0.73;;;15.10;84.70;;;;;;5120725;27;20004;-81
2024/04/17 11:50:30;;;;;;;1.15;0.65;;;15.10;84.60;;;;;;5147518;27;20020;-81
2024/04/17 11:52:55;;;;;;;1.45;0.70;;;15.00;84.50;;;;;;5148033;27;20004;-83
2024/04/17 11:55:22;;;;;;;1.38;0.70;;;15.20;84.70;;;;;;5121584;27;20005;-82
2024/04/17 11:57:48;;;;;;;1.67;0.75;;;15.10;84.60;;;;;;5121496;27;20011;-80
2024/04/17 12:00:13;;;;;;;2.00;0.80;;;15.10;84.60;;;;;;5175813;27;20000;-81
2024/04/17 12:02:39;;;;;;;1.15;0.82;;;15.10;84.70;;;;;;5147459;27;20005;-80
2024/04/17 12:05:05;;;;;;;1.98;0.90;;;15.10;84.70;;;;;;5120966;27;20000;-80
2024/04/17 12:07:31;;;;;;;0.93;0.63;;;15.10;84.70;;;;;;5120607;27;20350;-82
2024/04/17 12:09:57;;;;;;;1.55;0.63;;;15.10;84.70;;;;;;5121268;27;20005;-82
2024/04/17 12:12:23;;;;;;;1.00;0.60;;;15.10;84.70;;;;;;5175835;27;20768;-82
2024/04/17 12:14:49;;;;;;;1.42;0.80;;;15.10;84.70;;;;;;5147530;27;20004;-80
2024/04/17 12:17:15;;;;;;;1.58;0.73;;;15.10;84.60;;;;;;5121214;27;20011;-81
2024/04/17 12:19:41;;;;;;;1.27;0.70;;;15.10;84.60;;;;;;5176489;27;20005;-82
2024/04/17 12:22:07;;;;;;;1.67;0.80;;;15.10;84.60;;;;;;5146857;27;20008;-81
2024/04/17 12:27:17;;;;;;;2.90;0.90;;;15.20;84.50;;;;;;5175919;27;20012;-80
2024/04/17 12:29:51;;;;;;;1.95;0.80;;;15.20;84.40;;;;;;5178557;27;20005;-82
2024/04/17 12:32:25;;;;;;;1.02;0.63;;;15.20;84.40;;;;;;5176384;27;20004;-80
2024/04/17 12:34:54;;;;;;;2.03;0.80;;;15.20;84.40;;;;;;5146833;27;19996;-81
2024/04/17 12:37:19;;;;;;;1.73;0.70;;;15.20;84.40;;;;;;5175890;27;20049;-81
2024/04/17 12:39:45;;;;;;;0.98;0.55;;;15.20;84.50;;;;;;5120304;27;20428;-82
2024/04/17 12:42:17;;;;;;;1.30;0.60;;;15.10;84.50;;;;;;5145911;27;20000;-82
2024/04/17 12:44:48;;;;;;;1.80;0.68;;;15.20;84.50;;;;;;5175501;27;20015;-83
2024/04/17 12:47:23;;;;;;;0.80;0.60;;;15.20;84.50;;;;;;5178580;27;20013;-82
2024/04/17 12:49:48;;;;;;;1.00;0.60;;;15.20;84.50;;;;;;5151237;27;20000;-81
2024/04/17 12:52:25;;;;;;;1.50;0.63;;;15.20;84.60;;;;;;5175801;27;20076;-82
2024/04/17 12:54:59;;;;;;;1.83;0.90;;;15.20;84.60;;;;;;5147331;27;20005;-80
2024/04/17 12:57:28;;;;;;;1.42;0.70;;;15.20;84.60;;;;;;5179339;27;20458;-82
2024/04/17 12:59:59;;;;;;;0.98;0.68;;;15.30;84.70;;;;;;5147755;27;20012;-81
2024/04/17 13:02:31;;;;;;;0.73;0.60;;;15.10;84.60;;;;;;5147195;27;20494;-82
2024/04/17 13:05:02;;;;;;;0.65;0.50;;;15.10;84.60;;;;;;5146992;27;20336;-81
2024/04/17 13:07:31;;;;;;;1.00;0.70;;;15.10;84.70;;;;;;5146244;27;20007;-81
2024/04/17 13:09:59;;;;;;;1.25;0.60;;;15.00;84.70;;;;;;5146302;27;20001;-81
2024/04/17 13:12:27;;;;;;;0.90;0.60;;;15.00;84.70;;;;;;5174702;27;20004;-81
2024/04/17 13:15:03;;;;;;;;;;;;;;;;;;;;;
2024/04/17 13:17:31;;;;;;;1.13;0.70;;;15.00;84.90;;;;;;5176022;27;20005;-81
2024/04/17 13:20:00;;;;;;;0.68;0.60;;;15.10;85.00;;;;;;5146235;27;20009;-80
2024/04/17 13:22:36;;;;;;;0.95;0.65;;;15.10;85.00;;;;;;5150387;27;20005;-82
2024/04/17 13:25:04;;;;;;;1.00;0.80;;;15.10;85.10;;;;;;5149754;27;20004;-82
2024/04/17 13:27:30;;;;;;;1.05;0.60;;;15.10;85.10;;;;;;5148800;27;20012;-82
2024/04/17 13:29:58;;;;;;;1.60;0.80;;;15.00;85.00;;;;;;5149615;27;20012;-80
2024/04/17 13:32:28;;;;;;;1.17;0.65;;;15.00;85.00;;;;;;5149454;27;20001;-81
2024/04/17 13:34:55;;;;;;;0.63;0.60;;;15.00;85.00;;;;;;5152254;27;20007;-83
2024/04/17 13:37:24;;;;;;;0.73;0.73;;;15.00;85.10;;;;;;5149774;27;20019;-83
2024/04/17 13:39:50;;;;;;;1.23;0.73;;;14.90;85.00;;;;;;5154498;27;20011;-82
2024/04/17 13:42:16;;;;;;;0.90;0.70;;;15.00;85.00;;;;;;5149739;27;20394;-83
2024/04/17 13:44:42;;;;;;;0.77;0.52;;;15.10;85.10;;;;;;5123422;27;20015;-81
2024/04/17 13:47:07;;;;;;;1.35;0.70;;;15.00;85.00;;;;;;5149762;27;20001;-82
2024/04/17 13:49:33;;;;;;;1.25;0.70;;;15.00;85.10;;;;;;5149091;27;20005;-80
2024/04/17 13:51:58;;;;;;;1.10;0.68;;;15.10;85.10;;;;;;5150321;27;20584;-80
2024/04/17 13:54:24;;;;;;;1.00;0.70;;;15.10;85.10;;;;;;5180603;27;20028;-82
2024/04/17 13:56:50;;;;;;;0.88;0.60;;;15.10;85.10;;;;;;5149694;27;20036;-82
2024/04/17 13:59:15;;;;;;;1.80;0.65;;;14.90;85.00;;;;;;5177845;27;20367;-82
2024/04/17 14:01:41;;;;;;;1.40;0.60;;;15.00;85.00;;;;;;5149076;27;20517;-82
2024/04/17 14:04:07;;;;;;;0.98;0.60;;;15.10;85.10;;;;;;5151225;27;20000;-81
2024/04/17 14:06:32;;;;;;;0.57;0.57;;;15.10;85.00;;;;;;5122309;27;20088;-80
2024/04/17 14:08:59;;;;;;;0.43;0.43;;;14.90;84.90;;;;;;5149631;27;20016;-81
2024/04/17 14:11:25;;;;;;;1.77;0.55;;;15.10;85.00;;;;;;5178160;27;20014;-80
2024/04/17 14:13:51;;;;;;;0.75;0.60;;;15.00;85.00;;;;;;5178815;27;20004;-82
2024/04/17 14:16:16;;;;;;;0.52;0.50;;;15.00;85.00;;;;;;5178003;27;20450;-80
2024/04/17 14:18:42;;;;;;;0.95;0.63;;;15.00;85.00;;;;;;5178392;27;20079;-83
2024/04/17 14:21:17;;;;;;;1.38;0.60;;;15.10;85.00;;;;;;5121525;27;20879;-80
2024/04/17 14:23:47;;;;;;;1.27;0.77;;;15.10;85.00;;;;;;5150131;27;20008;-81
2024/04/17 14:26:24;;;;;;;0.80;0.60;;;15.00;84.90;;;;;;5149448;27;20019;-81
2024/04/17 14:28:50;;;;;;;1.55;0.70;;;15.00;84.90;;;;;;5149080;27;20015;-85
2024/04/17 14:31:16;;;;;;;0.93;0.60;;;15.10;84.90;;;;;;5149060;27;20001;-86
2024/04/17 14:33:41;;;;;;;1.63;0.70;;;15.10;85.00;;;;;;5136053;27;20000;-84
2024/04/17 14:36:07;;;;;;;0.93;0.60;;;15.10;84.90;;;;;;5177327;27;20794;-84
2024/04/17 14:38:36;;;;;;;0.90;0.55;;;15.10;84.90;;;;;;5176902;27;20004;-84
2024/04/17 14:41:03;;;;;;;0.70;0.60;;;15.10;84.90;;;;;;5177213;27;20005;-86
2024/04/17 14:43:29;;;;;;;0.82;0.65;;;15.10;84.90;;;;;;5178235;27;20008;-86
2024/04/17 14:46:00;;;;;;;1.70;0.70;;;15.10;85.40;;;;;;5177115;27;20000;-85
2024/04/17 14:48:29;;;;;;;0.70;0.70;;;15.10;84.90;;;;;;5150049;27;20033;-85
2024/04/17 14:51:01;;;;;;;1.45;0.80;;;15.00;84.80;;;;;;5149468;27;20000;-83
2024/04/17 14:53:28;;;;;;;0.95;0.60;;;15.10;84.90;;;;;;5148812;27;20018;-83
2024/04/17 14:56:01;;;;;;;0.88;0.68;;;15.10;85.40;;;;;;5175993;27;20000;-81
2024/04/17 14:58:28;;;;;;;1.17;0.70;;;15.10;85.00;;;;;;5177308;27;20015;-82
2024/04/17 15:00:54;;;;;;;1.05;0.68;;;15.00;85.00;;;;;;5148518;27;20004;-80
2024/04/17 15:03:23;;;;;;;1.00;0.75;;;15.00;85.00;;;;;;5178366;27;20446;-83
2024/04/17 15:05:53;;;;;;;1.85;0.70;;;15.00;85.10;;;;;;5288416;22;20008;-80
2024/04/17 15:08:20;;;;;;;1.00;0.70;;;15.00;85.10;;;;;;5180834;27;20003;-81
2024/04/17 15:10:52;;;;;;;0.70;0.60;;;15.00;85.10;;;;;;5179574;27;20076;-79
2024/04/17 15:13:18;;;;;;;;;;;15.00;85.10;;;;;;5181665;27;20096;-84
2024/04/17 15:21:03;;;;;;;0.82;0.60;;;15.00;85.10;;;;;;5174956;27;20303;-86
2024/04/17 15:23:29;;;;;;;0.63;0.60;;;15.00;85.10;;;;;;5178673;27;20391;-81
2024/04/17 15:26:01;;;;;;;0.80;0.68;;;15.00;85.10;;;;;;5148013;27;20004;-84
2024/04/17 15:28:27;;;;;;;0.93;0.70;;;15.00;85.00;;;;;;5146451;27;20454;-82
2024/04/17 15:34:35;;;;;;;1.13;0.60;;;15.00;84.80;;;;;;5145559;27;20015;-88
2024/04/17 15:38:06;;;;;;;;;;;;;;;;;;;;;
2024/04/17 15:40:44;;;;;;;0.90;0.50;;;15.10;84.80;;;;;;5195673;27;19999;-83
2024/04/17 15:43:21;;;;;;;1.63;0.60;;;15.00;84.80;;;;;;5137165;27;20280;-80
2024/04/17 15:45:59;;;;;;;0.50;0.50;;;15.00;84.80;;;;;;5179719;27;20022;-83
2024/04/17 15:48:33;;;;;;;1.65;0.70;;;15.20;84.90;;;;;;5178729;27;20322;-83
2024/04/17 15:51:05;;;;;;;0.50;0.50;;;14.90;84.70;;;;;;5180029;27;20519;-82
2024/04/17 15:53:49;;;;;;;0.77;0.70;;;15.00;84.80;;;;;;5179214;27;19999;-82
2024/04/17 15:56:28;;;;;;;0.80;0.60;;;15.10;84.90;;;;;;5153233;27;20013;-81
2024/04/17 15:59:04;;;;;;;1.13;0.60;;;15.00;84.80;;;;;;5208807;27;20553;-83
2024/04/17 16:01:47;;;;;;;0.70;0.60;;;15.10;84.90;;;;;;5179859;27;20011;-82
2024/04/17 16:04:33;;;;;;;1.10;0.70;;;15.00;85.40;;;;;;5183041;27;20401;-83
2024/04/17 16:07:04;;;;;;;0.73;0.63;;;15.00;84.90;;;;;;5152889;27;20424;-82
2024/04/17 16:09:35;;;;;;;1.45;0.70;;;15.00;85.00;;;;;;5152076;27;20015;-81
2024/04/17 16:12:06;;;;;;;0.57;0.50;;;15.00;84.90;;;;;;5179804;27;20012;-82
2024/04/17 16:14:51;;;;;;;0.45;0.45;;;15.00;84.90;;;;;;5179246;27;20086;-84
2024/04/17 16:17:20;;;;;;;1.02;0.60;;;15.00;85.00;;;;;;5182551;27;20679;-82
2024/04/17 16:19:48;;;;;;;0.77;0.50;;;15.00;85.00;;;;;;5179384;27;20657;-80
2024/04/17 16:22:14;;;;;;;0.82;0.60;;;15.00;85.00;;;;;;5151540;27;20027;-81
2024/04/17 16:24:39;;;;;;;1.15;0.60;;;15.00;85.00;;;;;;5151700;27;20548;-81
2024/04/17 16:27:06;;;;;;;0.55;0.45;;;15.00;85.10;;;;;;5178443;27;20004;-82
2024/04/17 16:29:32;;;;;;;0.90;0.60;;;15.00;85.10;;;;;;5177465;27;20003;-82
2024/04/17 16:32:04;;;;;;;1.20;0.50;;;15.10;85.20;;;;;;5176679;27;20559;-82
2024/04/17 16:34:31;;;;;;;0.50;0.45;;;15.10;85.30;;;;;;5177399;27;20007;-84
2024/04/17 16:36:57;;;;;;;1.38;0.70;;;15.00;85.20;;;;;;5177305;27;20095;-83
2024/04/17 16:39:23;;;;;;;1.70;0.80;;;15.00;85.20;;;;;;5155033;27;20003;-86
2024/04/17 16:41:48;;;;;;;11.27;1.55;;;14.90;83.30;;;;;;5182322;27;19991;-84
2024/04/17 16:44:14;;;;;;;7.60;1.30;;;14.90;79.10;;;;;;5211690;27;20006;-84
2024/04/17 16:46:39;;;;;;;6.18;1.20;;;14.70;76.80;;;;;;5182118;27;20415;-83
2024/04/17 16:49:05;;;;;;;9.77;1.38;;;14.80;76.20;;;;;;5182887;27;20003;-84
2024/04/17 16:51:33;;;;;;;9.07;1.85;;;14.80;76.00;;;;;;5211951;27;20292;-84
2024/04/17 16:53:59;;;;;;;6.93;2.22;;;14.80;76.10;;;;;;5181379;27;20075;-82
2024/04/17 16:56:24;;;;;;;5.25;1.75;;;14.70;76.10;;;;;;5180728;27;20457;-85
2024/04/17 16:58:50;;;;;;;6.10;1.80;;;14.70;76.00;;;;;;5183113;27;20054;-87
2024/04/17 17:04:43;;;;;;;5.00;1.58;;;14.70;75.90;;;;;;5112623;27;20097;-83
2024/04/17 17:07:12;;;;;;;8.93;1.92;;;14.70;76.10;;;;;;5148032;27;20003;-87
2024/04/17 17:09:58;;;;;;;6.63;2.05;;;14.60;75.90;;;;;;5185798;27;20008;-85
2024/04/17 17:12:44;;;;;;;6.78;1.90;;;14.80;76.30;;;;;;5215575;27;20004;-86
2024/04/17 17:15:33;;;;;;;6.15;1.77;;;14.60;76.30;;;;;;5213849;27;20000;-82
2024/04/17 17:18:31;;;;;;;8.43;1.90;;;14.60;76.20;;;;;;5187762;27;20000;-83
2024/04/17 17:21:32;;;;;;;4.18;1.70;;;14.60;76.20;;;;;;5149860;27;20089;-83
2024/04/17 17:24:01;;;;;;;5.65;1.70;;;14.60;76.20;;;;;;5177236;27;19996;-82
2024/04/17 17:26:26;;;;;;;4.30;1.58;;;14.40;75.90;;;;;;5151559;27;20007;-85
2024/04/17 17:28:52;;;;;;;4.60;1.35;;;14.60;75.90;;;;;;5178691;27;20469;-82
2024/04/17 17:31:17;;;;;;;6.05;2.00;;;14.60;75.90;;;;;;5176697;27;20008;-81
2024/04/17 17:33:44;;;;;;;4.13;1.60;;;14.50;76.00;;;;;;5177707;27;20015;-82